Time;durP1;ratioP1;P1;durP2;ratioP2;P2;SDS_P1;SDS_P2;PMS_P1;PMS_P2;Temp;Humidity;BMP_temperature;BMP_pressure;BME280_temperature;BME280_humidity;BME280_pressure;Samples;Min_cycle;Max_cycle;Signal;HPM_P1;HPM_P2
2022/09/22 00:00:06;;;;;;;2.83;1.87;;;7.40;99.90;;;;;;5007835;28;20504;-71
2022/09/22 00:02:32;;;;;;;3.80;2.17;;;7.20;99.90;;;;;;5006682;28;20056;-72
2022/09/22 00:04:58;;;;;;;3.97;2.07;;;7.20;99.90;;;;;;4981658;28;20050;-72
2022/09/22 00:07:24;;;;;;;3.77;1.70;;;7.30;99.90;;;;;;4990232;28;20054;-71
2022/09/22 00:09:49;;;;;;;4.03;2.00;;;7.20;99.90;;;;;;5007984;28;20107;-72
2022/09/22 00:12:15;;;;;;;2.70;1.80;;;7.20;99.90;;;;;;4988741;28;20038;-72
2022/09/22 00:14:41;;;;;;;4.50;1.80;;;7.10;99.90;;;;;;5009511;28;20129;-72
2022/09/22 00:17:07;;;;;;;6.70;1.90;;;7.10;99.90;;;;;;4962212;28;20077;-71
2022/09/22 00:19:35;;;;;;;67.57;3.90;;;6.90;99.90;;;;;;4973536;28;20061;-72
2022/09/22 00:22:01;;;;;;;33.93;2.93;;;6.90;99.90;;;;;;4989441;28;20824;-72
2022/09/22 00:24:27;;;;;;;99.00;4.63;;;6.90;99.90;;;;;;4972439;28;20049;-72
2022/09/22 00:26:56;;;;;;;38.67;2.50;;;6.80;99.90;;;;;;4974473;28;20069;-72
2022/09/22 00:29:22;;;;;;;3.93;1.47;;;6.80;99.90;;;;;;5006472;28;20045;-71
2022/09/22 00:31:49;;;;;;;3.57;1.27;;;6.70;99.90;;;;;;5008297;28;20030;-72
2022/09/22 00:34:21;;;;;;;4.60;1.40;;;6.70;99.90;;;;;;4995141;28;20045;-72
2022/09/22 00:36:48;;;;;;;2.43;1.70;;;6.70;99.90;;;;;;4980726;28;20148;-72
2022/09/22 00:39:15;;;;;;;1.90;1.40;;;6.60;99.90;;;;;;4996385;28;20045;-72
2022/09/22 00:41:44;;;;;;;5.83;1.43;;;6.60;99.90;;;;;;5014195;28;20412;-72
2022/09/22 00:44:28;;;;;;;1.93;1.60;;;6.60;99.90;;;;;;4995425;28;20115;-71
2022/09/22 00:47:10;;;;;;;3.67;2.10;;;6.60;99.90;;;;;;4993813;28;20058;-72
2022/09/22 00:49:52;;;;;;;2.73;1.90;;;6.50;99.90;;;;;;4994371;28;20157;-72
2022/09/22 00:52:35;;;;;;;3.30;2.30;;;6.50;99.90;;;;;;4985942;28;20068;-72
2022/09/22 00:55:05;;;;;;;2.60;2.20;;;6.60;99.90;;;;;;4976831;28;20041;-72
2022/09/22 00:57:34;;;;;;;4.60;2.00;;;6.70;99.90;;;;;;4972815;28;20042;-71
2022/09/22 01:00:03;;;;;;;4.57;2.70;;;6.60;99.90;;;;;;5013989;28;20042;-72
2022/09/22 01:02:28;;;;;;;4.70;2.83;;;6.70;99.90;;;;;;5012818;28;20038;-72
2022/09/22 01:04:54;;;;;;;17.10;3.57;;;6.80;99.90;;;;;;5005921;28;20096;-72
2022/09/22 01:07:24;;;;;;;27.07;3.90;;;6.70;99.90;;;;;;4996388;28;20060;-72
2022/09/22 01:09:51;;;;;;;24.73;4.07;;;6.60;99.90;;;;;;5013604;28;20390;-72
2022/09/22 01:12:18;;;;;;;52.00;4.50;;;6.70;99.90;;;;;;5012534;28;20045;-71
2022/09/22 01:15:12;;;;;;;16.43;3.67;;;6.60;99.90;;;;;;5015563;28;20578;-72
2022/09/22 01:18:12;;;;;;;96.67;6.50;;;6.60;99.90;;;;;;4975047;28;20058;-72
2022/09/22 01:20:57;;;;;;;29.20;3.17;;;6.60;99.90;;;;;;4995446;28;20467;-72
2022/09/22 01:23:45;;;;;;;19.87;3.53;;;6.50;99.90;;;;;;4991935;28;20046;-72
2022/09/22 01:26:32;;;;;;;3.17;2.40;;;6.50;99.90;;;;;;4978650;28;20395;-72
2022/09/22 01:29:35;;;;;;;2.90;2.60;;;6.50;99.90;;;;;;5003847;28;20076;-72
2022/09/22 01:32:07;;;;;;;3.20;2.50;;;6.50;99.90;;;;;;5011550;28;20565;-71
2022/09/22 01:34:54;;;;;;;3.00;2.30;;;6.50;99.90;;;;;;4994853;28;20048;-72
2022/09/22 01:37:40;;;;;;;2.93;2.30;;;6.50;99.90;;;;;;4997463;28;20050;-72
2022/09/22 01:40:34;;;;;;;3.73;2.17;;;6.40;99.90;;;;;;5013166;28;20042;-72
2022/09/22 01:43:17;;;;;;;5.30;2.70;;;6.40;99.90;;;;;;5006457;28;20099;-72
2022/09/22 01:45:47;;;;;;;4.43;2.70;;;6.40;99.90;;;;;;4991721;28;20089;-72
2022/09/22 01:48:24;;;;;;;2.30;2.03;;;6.40;99.90;;;;;;4992833;28;20580;-72
2022/09/22 01:50:52;;;;;;;3.60;2.57;;;6.40;99.90;;;;;;4995141;28;20053;-72
2022/09/22 01:53:22;;;;;;;2.50;2.00;;;6.50;99.90;;;;;;5011527;28;20409;-72
2022/09/22 01:55:52;;;;;;;4.50;2.03;;;6.40;99.90;;;;;;4995376;28;20042;-72
2022/09/22 01:58:30;;;;;;;5.33;2.20;;;6.40;99.90;;;;;;4995863;28;20524;-72
2022/09/22 02:01:06;;;;;;;4.13;2.03;;;6.20;99.90;;;;;;5012730;28;20050;-72
2022/09/22 02:03:44;;;;;;;2.83;2.03;;;6.30;99.90;;;;;;4977762;28;20038;-72
2022/09/22 02:06:18;;;;;;;2.57;2.20;;;6.30;99.90;;;;;;4999019;28;20413;-72
2022/09/22 02:08:53;;;;;;;2.73;1.93;;;6.30;99.90;;;;;;4999667;28;20258;-72
2022/09/22 02:11:18;;;;;;;2.20;2.00;;;6.30;99.90;;;;;;4994589;28;20497;-72
2022/09/22 02:13:45;;;;;;;2.17;1.87;;;6.30;99.90;;;;;;4997683;28;20057;-72
2022/09/22 02:16:17;;;;;;;1.80;1.57;;;6.20;99.90;;;;;;5005461;28;20068;-72
2022/09/22 02:18:54;;;;;;;2.17;1.80;;;6.20;99.90;;;;;;4985687;28;20075;-72
2022/09/22 02:21:23;;;;;;;1.93;1.70;;;6.20;99.90;;;;;;4991557;28;20074;-72
2022/09/22 02:23:49;;;;;;;3.20;2.03;;;6.20;99.90;;;;;;4974877;28;20046;-72
2022/09/22 02:26:22;;;;;;;2.27;1.70;;;6.20;99.90;;;;;;4982152;28;20045;-72
2022/09/22 02:28:52;;;;;;;2.40;1.60;;;6.20;99.90;;;;;;4988307;28;20054;-72
2022/09/22 02:31:20;;;;;;;1.90;1.30;;;6.10;99.90;;;;;;4980040;28;20050;-72
2022/09/22 02:33:47;;;;;;;1.70;1.30;;;6.10;99.90;;;;;;4970714;28;20053;-72
2022/09/22 02:36:55;;;;;;;1.30;0.97;;;6.10;99.90;;;;;;4977676;28;20100;-73
2022/09/22 02:39:30;;;;;;;3.83;0.90;;;6.00;99.90;;;;;;4991949;28;20053;-72
2022/09/22 02:42:28;;;;;;;0.80;0.60;;;5.90;99.90;;;;;;4992208;28;20042;-72
2022/09/22 02:45:06;;;;;;;0.77;0.77;;;6.00;99.90;;;;;;4968049;28;20042;-72
2022/09/22 02:47:58;;;;;;;1.07;0.90;;;5.90;99.90;;;;;;4974670;28;20058;-72
2022/09/22 02:50:26;;;;;;;2.15;1.17;;;5.90;99.90;;;;;;4992034;28;20053;-72
2022/09/22 02:52:55;;;;;;;1.10;0.93;;;5.80;99.90;;;;;;4991150;28;20046;-72
2022/09/22 02:55:21;;;;;;;1.30;0.97;;;5.80;99.90;;;;;;4988318;28;20050;-71
2022/09/22 02:57:46;;;;;;;2.67;1.07;;;5.90;99.90;;;;;;4974226;28;20065;-72
2022/09/22 03:00:12;;;;;;;18.60;1.63;;;5.80;99.90;;;;;;4991848;28;20386;-72
2022/09/22 03:02:38;;;;;;;1.63;1.20;;;5.80;99.90;;;;;;4991022;28;20054;-72
2022/09/22 03:05:04;;;;;;;1.50;1.10;;;5.70;99.90;;;;;;4983205;28;20034;-72
2022/09/22 03:07:30;;;;;;;2.17;1.10;;;5.70;99.90;;;;;;4957927;28;20132;-72
2022/09/22 03:09:55;;;;;;;1.83;1.03;;;5.70;99.90;;;;;;4990706;28;20081;-72
2022/09/22 03:12:21;;;;;;;1.93;1.23;;;5.70;99.90;;;;;;4987243;28;20502;-72
2022/09/22 03:14:48;;;;;;;3.00;1.20;;;5.70;99.90;;;;;;4982469;28;20052;-73
2022/09/22 03:17:14;;;;;;;1.23;1.13;;;5.70;99.90;;;;;;4963015;28;20161;-71
2022/09/22 03:19:40;;;;;;;1.87;1.30;;;5.70;99.90;;;;;;4990089;28;20478;-72
2022/09/22 03:22:05;;;;;;;1.83;1.20;;;5.70;99.90;;;;;;4988195;28;20532;-71
2022/09/22 03:24:31;;;;;;;2.40;0.90;;;5.70;99.90;;;;;;4968338;28;20054;-72
2022/09/22 03:26:57;;;;;;;1.87;1.30;;;5.70;99.90;;;;;;4942193;28;20141;-72
2022/09/22 03:29:22;;;;;;;2.43;1.50;;;5.70;99.90;;;;;;4999482;28;20049;-72
2022/09/22 03:31:48;;;;;;;1.23;1.10;;;5.70;99.90;;;;;;5010717;28;20034;-72
2022/09/22 03:34:14;;;;;;;3.37;1.77;;;5.70;99.90;;;;;;5010134;28;20050;-72
2022/09/22 03:36:39;;;;;;;1.60;1.50;;;5.60;99.90;;;;;;4979823;28;20513;-72
2022/09/22 03:39:05;;;;;;;2.40;1.50;;;5.70;99.90;;;;;;4991466;28;20096;-72
2022/09/22 03:41:30;;;;;;;1.37;1.20;;;5.70;99.90;;;;;;4992998;28;20468;-72
2022/09/22 03:43:57;;;;;;;2.73;1.33;;;5.70;99.90;;;;;;5000436;28;20417;-72
2022/09/22 03:46:23;;;;;;;3.63;1.63;;;5.70;99.90;;;;;;4993434;28;20092;-72
2022/09/22 03:48:49;;;;;;;3.37;1.30;;;5.70;99.90;;;;;;4988996;28;20144;-72
2022/09/22 03:51:15;;;;;;;3.43;1.17;;;5.70;99.90;;;;;;5010892;28;20126;-72
2022/09/22 03:53:41;;;;;;;2.67;1.23;;;5.60;99.90;;;;;;5009746;28;20072;-72
2022/09/22 03:56:14;;;;;;;1.50;1.30;;;5.70;99.90;;;;;;4973508;28;20045;-72
2022/09/22 03:58:40;;;;;;;2.60;1.40;;;5.60;99.90;;;;;;5003746;28;20054;-72
2022/09/22 04:01:09;;;;;;;1.73;1.30;;;5.60;99.90;;;;;;4992989;28;20050;-72
2022/09/22 04:03:36;;;;;;;1.73;1.30;;;5.60;99.90;;;;;;4992206;28;20104;-72
2022/09/22 04:06:02;;;;;;;2.33;1.30;;;5.60;99.90;;;;;;4997301;28;20091;-72
2022/09/22 04:08:28;;;;;;;1.40;0.97;;;5.60;99.90;;;;;;4974212;28;20041;-72
2022/09/22 04:10:56;;;;;;;1.10;1.00;;;5.60;99.90;;;;;;5006991;28;20058;-72
2022/09/22 04:13:22;;;;;;;3.60;1.53;;;5.60;99.90;;;;;;4998119;28;20044;-72
2022/09/22 04:15:47;;;;;;;4.47;1.40;;;5.50;99.90;;;;;;5008502;28;20050;-73
2022/09/22 04:18:14;;;;;;;2.03;1.10;;;5.60;99.90;;;;;;4975956;28;20046;-72
2022/09/22 04:20:44;;;;;;;2.03;1.50;;;5.50;99.90;;;;;;4992679;28;20054;-72
2022/09/22 04:23:14;;;;;;;4.40;1.80;;;5.50;99.90;;;;;;4991791;28;20088;-72
2022/09/22 04:25:40;;;;;;;3.67;1.70;;;5.50;99.90;;;;;;4976168;28;20054;-72
2022/09/22 04:28:06;;;;;;;7.03;1.80;;;5.50;99.90;;;;;;4993493;28;20046;-72
2022/09/22 04:30:33;;;;;;;2.73;1.93;;;5.40;99.90;;;;;;4992644;28;20073;-72
2022/09/22 04:32:59;;;;;;;3.77;1.67;;;5.50;99.90;;;;;;4975533;28;20049;-72
2022/09/22 04:35:27;;;;;;;2.13;1.80;;;5.50;99.90;;;;;;4992825;28;20048;-72
2022/09/22 04:37:54;;;;;;;3.63;2.20;;;5.40;99.90;;;;;;4993922;28;20512;-72
2022/09/22 04:40:21;;;;;;;3.50;2.17;;;5.40;99.90;;;;;;5010638;28;20129;-72
2022/09/22 04:42:47;;;;;;;2.57;2.10;;;5.40;99.90;;;;;;5009019;28;20037;-71
2022/09/22 04:45:15;;;;;;;4.27;2.00;;;5.40;99.90;;;;;;5006216;28;20081;-72
2022/09/22 04:47:48;;;;;;;3.93;1.73;;;5.40;99.90;;;;;;4983625;28;21182;-71
2022/09/22 04:50:14;;;;;;;3.53;1.93;;;5.40;99.90;;;;;;5007427;28;20052;-72
2022/09/22 04:52:44;;;;;;;4.20;2.00;;;5.40;99.90;;;;;;4988409;28;20053;-72
2022/09/22 04:55:10;;;;;;;2.67;1.80;;;5.40;99.90;;;;;;4989477;28;20180;-72
2022/09/22 04:57:36;;;;;;;3.27;1.60;;;5.40;99.90;;;;;;4990451;28;20160;-71
2022/09/22 05:00:04;;;;;;;2.87;2.27;;;5.40;99.90;;;;;;4994130;28;20084;-71
2022/09/22 05:02:29;;;;;;;3.53;1.90;;;5.40;99.90;;;;;;5005972;28;20084;-72
2022/09/22 05:04:55;;;;;;;3.67;2.13;;;5.40;99.90;;;;;;5004783;28;20124;-72
2022/09/22 05:07:21;;;;;;;3.70;2.30;;;5.40;99.90;;;;;;4992364;28;20053;-72
2022/09/22 05:09:47;;;;;;;3.20;2.20;;;5.40;99.90;;;;;;4989244;28;20062;-72
2022/09/22 05:12:13;;;;;;;3.63;2.13;;;5.40;99.90;;;;;;4986820;28;20042;-71
2022/09/22 05:14:38;;;;;;;2.80;2.10;;;5.40;99.90;;;;;;5000698;28;20058;-72
2022/09/22 05:17:05;;;;;;;4.17;2.40;;;5.30;99.90;;;;;;4977643;28;20445;-69
2022/09/22 05:19:31;;;;;;;4.90;2.20;;;5.40;99.90;;;;;;4974340;28;20429;-72
2022/09/22 05:21:56;;;;;;;5.37;2.80;;;5.30;99.90;;;;;;5001949;28;20041;-72
2022/09/22 05:24:22;;;;;;;6.73;2.73;;;5.30;99.90;;;;;;5009338;28;20050;-72
2022/09/22 05:26:47;;;;;;;4.80;2.60;;;5.40;99.90;;;;;;4966220;28;20046;-72
2022/09/22 05:29:17;;;;;;;3.27;2.57;;;5.40;99.90;;;;;;4991397;28;20081;-72
2022/09/22 05:31:43;;;;;;;3.97;2.70;;;5.40;99.90;;;;;;5012731;28;20505;-72
2022/09/22 05:34:09;;;;;;;5.40;2.60;;;5.40;99.90;;;;;;5012248;28;20049;-72
2022/09/22 05:36:35;;;;;;;4.97;2.70;;;5.50;99.90;;;;;;4999317;28;20100;-72
2022/09/22 05:39:00;;;;;;;4.57;2.63;;;5.50;99.90;;;;;;4990061;28;20588;-72
2022/09/22 05:41:26;;;;;;;4.73;2.70;;;5.40;99.90;;;;;;5009166;28;20054;-72
2022/09/22 05:43:52;;;;;;;7.00;3.50;;;5.50;99.90;;;;;;4993920;28;20049;-72
2022/09/22 05:46:17;;;;;;;3.20;2.77;;;5.40;99.90;;;;;;5002396;28;20085;-72
2022/09/22 05:48:43;;;;;;;6.47;2.40;;;5.50;99.90;;;;;;5006918;28;20050;-72
2022/09/22 05:51:09;;;;;;;4.10;3.07;;;5.50;99.90;;;;;;5012106;28;20041;-73
2022/09/22 05:53:35;;;;;;;4.03;2.87;;;5.50;99.90;;;;;;4987737;28;20050;-72
2022/09/22 05:56:00;;;;;;;5.93;2.80;;;5.60;99.90;;;;;;5000012;28;20057;-72
2022/09/22 05:58:26;;;;;;;8.37;3.23;;;5.70;99.90;;;;;;4967812;28;20100;-72
2022/09/22 06:00:56;;;;;;;7.10;3.20;;;5.70;99.90;;;;;;4988317;28;20112;-72
2022/09/22 06:03:21;;;;;;;5.73;3.03;;;5.80;99.90;;;;;;4988494;28;20140;-72
2022/09/22 06:05:47;;;;;;;4.20;3.33;;;5.90;99.90;;;;;;5001569;28;20560;-72
2022/09/22 06:08:13;;;;;;;7.23;4.13;;;5.90;99.90;;;;;;4970865;28;20120;-72
2022/09/22 06:10:39;;;;;;;9.73;5.00;;;6.20;99.90;;;;;;4983431;28;20130;-73
2022/09/22 06:13:07;;;;;;;12.57;5.70;;;6.30;99.90;;;;;;4989445;28;20041;-73
2022/09/22 06:15:34;;;;;;;12.87;5.60;;;6.40;99.90;;;;;;4992628;28;20050;-72
2022/09/22 06:18:02;;;;;;;11.57;5.00;;;6.60;99.90;;;;;;4973519;28;20501;-72
2022/09/22 06:20:28;;;;;;;11.13;5.40;;;6.80;99.90;;;;;;4998314;28;20050;-73
2022/09/22 06:22:55;;;;;;;9.97;5.40;;;6.90;99.90;;;;;;5004726;28;20528;-73
2022/09/22 06:25:22;;;;;;;9.60;5.37;;;7.00;99.90;;;;;;4990467;28;20061;-73
2022/09/22 06:28:06;;;;;;;8.50;4.47;;;7.10;99.90;;;;;;4963049;28;20092;-73
2022/09/22 06:30:34;;;;;;;9.13;4.83;;;7.10;99.90;;;;;;4970657;28;20452;-73
2022/09/22 06:33:00;;;;;;;8.13;4.70;;;7.00;99.90;;;;;;4979648;28;20038;-73
2022/09/22 06:35:36;;;;;;;8.37;4.33;;;7.20;99.90;;;;;;4983214;28;20108;-73
2022/09/22 06:38:06;;;;;;;6.47;4.40;;;7.20;99.90;;;;;;4965079;28;20060;-73
2022/09/22 06:40:32;;;;;;;8.33;4.23;;;7.40;99.90;;;;;;4964136;28;20060;-74
2022/09/22 06:43:10;;;;;;;6.00;4.37;;;7.40;99.90;;;;;;4947177;28;20049;-73
2022/09/22 06:45:37;;;;;;;6.00;3.90;;;7.40;99.90;;;;;;4981815;28;20050;-73
2022/09/22 06:48:03;;;;;;;7.13;4.23;;;7.40;99.90;;;;;;4963233;28;20042;-73
2022/09/22 06:50:32;;;;;;;6.87;4.73;;;7.50;99.90;;;;;;4998495;28;20064;-73
2022/09/22 06:52:59;;;;;;;6.27;5.07;;;7.60;99.90;;;;;;4999128;28;20436;-73
2022/09/22 06:55:27;;;;;;;8.67;5.07;;;7.70;99.90;;;;;;4982753;28;20054;-73
2022/09/22 06:57:52;;;;;;;9.40;4.63;;;7.70;99.90;;;;;;4965577;28;20528;-73
2022/09/22 07:00:18;;;;;;;12.17;7.00;;;7.80;99.90;;;;;;4980475;28;20038;-73
2022/09/22 07:02:44;;;;;;;12.83;6.93;;;7.90;99.90;;;;;;4982218;28;20042;-73
2022/09/22 07:05:09;;;;;;;11.37;6.83;;;8.00;99.90;;;;;;4964029;28;20046;-73
2022/09/22 07:07:35;;;;;;;9.40;6.50;;;8.20;99.90;;;;;;4963617;28;20056;-73
2022/09/22 07:10:01;;;;;;;9.83;6.40;;;8.20;99.90;;;;;;4978369;28;20108;-73
2022/09/22 07:12:27;;;;;;;12.50;6.97;;;8.40;99.90;;;;;;4974822;28;20061;-73
2022/09/22 07:14:55;;;;;;;12.77;6.53;;;8.50;99.90;;;;;;5003366;28;20045;-73
2022/09/22 07:17:21;;;;;;;12.80;7.03;;;8.50;99.90;;;;;;4966111;28;20402;-73
2022/09/22 07:19:47;;;;;;;12.47;7.00;;;8.70;99.90;;;;;;4995807;28;20062;-73
2022/09/22 07:22:18;;;;;;;10.60;6.97;;;8.80;99.90;;;;;;4980466;28;20058;-73
2022/09/22 07:24:44;;;;;;;;;;;8.90;99.90;;;;;;4963832;28;20664;-73
2022/09/22 07:27:11;;;;;;;9.67;6.60;;;9.00;99.90;;;;;;4960909;28;19931;-72
2022/09/22 07:29:38;;;;;;;11.47;6.97;;;9.10;99.90;;;;;;4981069;28;20547;-73
2022/09/22 07:32:04;;;;;;;11.83;6.80;;;9.20;99.90;;;;;;4965376;28;20042;-72
2022/09/22 07:34:30;;;;;;;10.20;6.80;;;9.40;99.90;;;;;;4947600;28;20050;-73
2022/09/22 07:36:58;;;;;;;9.30;6.63;;;9.40;99.90;;;;;;4946354;28;20108;-73
2022/09/22 07:39:24;;;;;;;12.77;6.57;;;9.50;99.90;;;;;;4977934;28;20052;-74
2022/09/22 07:41:49;;;;;;;10.17;6.80;;;9.70;99.90;;;;;;4963863;28;20061;-74
2022/09/22 07:47:00;;;;;;;11.50;6.33;;;10.00;99.90;;;;;;4949253;28;20478;-74
2022/09/22 07:49:26;;;;;;;8.77;6.00;;;10.20;99.90;;;;;;4961435;28;20464;-74
2022/09/22 07:51:53;;;;;;;10.27;6.30;;;10.30;99.90;;;;;;4963772;28;20049;-74
2022/09/22 07:54:20;;;;;;;9.38;5.68;;;10.40;99.90;;;;;;4981046;28;20065;-74
2022/09/22 07:56:46;;;;;;;12.23;5.97;;;10.70;99.90;;;;;;4950808;28;20038;-74
2022/09/22 07:59:14;;;;;;;10.23;6.13;;;10.80;99.90;;;;;;4977715;28;20107;-74
2022/09/22 08:01:42;;;;;;;8.50;5.20;;;10.80;99.90;;;;;;4982152;28;20053;-74
2022/09/22 08:04:11;;;;;;;8.82;4.97;;;10.90;99.90;;;;;;4980330;28;20464;-74
2022/09/22 08:06:37;;;;;;;8.73;4.95;;;10.90;99.90;;;;;;4967284;28;20510;-74
2022/09/22 08:09:05;;;;;;;11.00;5.00;;;11.10;99.90;;;;;;4959750;28;20076;-74
2022/09/22 08:11:31;;;;;;;8.90;5.10;;;11.10;99.90;;;;;;4961411;28;20050;-74
2022/09/22 08:14:03;;;;;;;5.95;4.30;;;11.20;99.90;;;;;;4983657;28;20060;-74
2022/09/22 08:16:31;;;;;;;5.45;4.07;;;11.40;99.90;;;;;;4953167;28;20057;-74
2022/09/22 08:19:02;;;;;;;8.30;4.80;;;11.60;99.90;;;;;;4979194;28;21939;-73
2022/09/22 08:21:34;;;;;;;9.43;4.82;;;11.50;99.90;;;;;;4961988;28;20155;-74
2022/09/22 08:24:00;;;;;;;6.68;4.35;;;11.60;99.90;;;;;;4960994;28;20080;-74
2022/09/22 08:26:26;;;;;;;5.88;3.85;;;11.70;99.90;;;;;;4933774;28;20485;-74
2022/09/22 08:28:53;;;;;;;6.45;3.58;;;11.60;99.90;;;;;;4960440;28;20103;-73
2022/09/22 08:31:19;;;;;;;9.60;4.10;;;11.70;99.90;;;;;;4981602;28;20057;-73
2022/09/22 08:33:46;;;;;;;9.02;4.55;;;12.00;99.90;;;;;;4962571;28;20417;-74
2022/09/22 08:36:12;;;;;;;8.52;4.00;;;12.10;99.90;;;;;;4950156;28;20062;-74
2022/09/22 08:38:38;;;;;;;8.32;4.18;;;12.20;99.90;;;;;;4977034;28;20421;-74
2022/09/22 08:41:14;;;;;;;7.97;3.10;;;12.40;99.90;;;;;;4964347;28;20049;-74
2022/09/22 08:44:10;;;;;;;6.15;3.47;;;12.40;99.90;;;;;;4960787;28;20056;-74
2022/09/22 08:46:37;;;;;;;7.95;3.40;;;12.50;99.90;;;;;;4945172;28;20050;-74
2022/09/22 08:52:17;;;;;;;7.72;3.13;;;12.70;99.90;;;;;;4979895;28;20092;-74
2022/09/22 08:54:43;;;;;;;8.57;3.30;;;12.60;99.90;;;;;;4960671;28;20054;-74
2022/09/22 08:57:33;;;;;;;5.53;2.60;;;12.90;99.90;;;;;;4957383;28;20049;-73
2022/09/22 08:59:59;;;;;;;4.63;2.55;;;13.00;99.90;;;;;;4946351;28;20119;-74
2022/09/22 09:02:34;;;;;;;4.65;1.90;;;13.00;99.90;;;;;;4984408;28;20057;-74
2022/09/22 09:05:38;;;;;;;8.50;2.22;;;13.10;99.90;;;;;;4948127;28;20521;-74
2022/09/22 09:08:27;;;;;;;6.30;2.03;;;13.30;99.90;;;;;;4952231;28;20057;-74
2022/09/22 09:10:58;;;;;;;2.78;1.83;;;13.30;99.90;;;;;;4962373;28;20065;-74
2022/09/22 09:14:03;;;;;;;6.10;2.30;;;13.30;99.90;;;;;;4984581;28;20049;-74
2022/09/22 09:16:58;;;;;;;9.45;1.98;;;13.30;99.90;;;;;;4960089;28;20690;-74
2022/09/22 09:19:32;;;;;;;4.80;2.33;;;13.50;99.90;;;;;;4965758;28;20524;-74
2022/09/22 09:22:04;;;;;;;5.05;2.40;;;13.60;99.90;;;;;;4986303;28;20498;-74
2022/09/22 09:24:35;;;;;;;6.57;2.17;;;13.60;99.90;;;;;;4964573;28;21622;-74
2022/09/22 09:27:07;;;;;;;7.30;2.00;;;13.90;99.90;;;;;;4952196;28;20762;-74
2022/09/22 09:29:43;;;;;;;5.78;2.13;;;14.00;99.90;;;;;;4978880;28;20387;-74
2022/09/22 09:32:27;;;;;;;4.82;1.50;;;14.00;99.90;;;;;;4985247;28;20172;-74
2022/09/22 09:34:52;;;;;;;5.13;2.05;;;14.00;99.90;;;;;;4959178;28;20501;-74
2022/09/22 09:37:19;;;;;;;6.20;1.88;;;14.10;99.90;;;;;;4953310;28;20045;-74
2022/09/22 09:39:45;;;;;;;7.65;1.65;;;14.30;99.90;;;;;;4962829;28;20463;-74
2022/09/22 09:42:24;;;;;;;4.28;1.55;;;14.30;99.90;;;;;;4985945;28;20046;-73
2022/09/22 09:44:52;;;;;;;7.53;1.98;;;14.30;99.90;;;;;;4945337;28;21205;-74
2022/09/22 09:47:52;;;;;;;4.05;1.40;;;14.60;99.90;;;;;;4947509;28;20509;-74
2022/09/22 09:50:17;;;;;;;6.22;1.70;;;14.70;99.90;;;;;;4965523;28;20061;-74
2022/09/22 09:52:44;;;;;;;2.38;1.23;;;14.80;99.90;;;;;;4982595;28;20428;-74
2022/09/22 09:55:20;;;;;;;3.47;1.35;;;15.00;99.90;;;;;;4962057;28;20062;-74
2022/09/22 09:58:00;;;;;;;6.05;1.50;;;15.00;99.90;;;;;;4951173;28;20054;-73
2022/09/22 10:00:32;;;;;;;5.93;2.08;;;15.10;99.90;;;;;;4980059;28;20528;-74
2022/09/22 10:03:27;;;;;;;6.05;1.40;;;15.20;99.90;;;;;;4982029;28;20057;-74
2022/09/22 10:06:05;;;;;;;3.90;1.40;;;15.20;99.90;;;;;;4979949;28;20069;-74
2022/09/22 10:08:43;;;;;;;8.02;1.40;;;15.20;99.90;;;;;;4966576;28;20535;-74
2022/09/22 10:11:11;;;;;;;3.70;1.00;;;15.40;99.90;;;;;;4983795;28;20456;-74
2022/09/22 10:13:39;;;;;;;3.92;1.00;;;15.40;99.90;;;;;;4963793;28;20482;-74
2022/09/22 10:16:21;;;;;;;4.22;1.35;;;15.50;99.90;;;;;;4981645;28;20076;-74
2022/09/22 10:19:08;;;;;;;7.88;2.83;;;15.40;99.90;;;;;;4977065;28;20054;-74
2022/09/22 10:21:36;;;;;;;6.75;1.85;;;15.60;99.90;;;;;;4963795;28;20492;-74
2022/09/22 10:24:30;;;;;;;5.45;1.80;;;15.70;99.90;;;;;;4960891;28;20073;-73
2022/09/22 10:26:56;;;;;;;7.53;2.85;;;15.80;99.90;;;;;;4933496;28;20150;-74
2022/09/22 10:29:23;;;;;;;8.68;2.03;;;16.00;99.90;;;;;;4964809;28;20058;-74
2022/09/22 10:32:04;;;;;;;5.43;1.27;;;15.90;99.90;;;;;;4984576;28;20054;-74
2022/09/22 10:34:33;;;;;;;4.43;0.85;;;15.90;99.90;;;;;;4965121;28;20537;-74
2022/09/22 10:37:00;;;;;;;3.88;1.10;;;16.00;99.90;;;;;;4963858;28;20089;-73
2022/09/22 10:39:43;;;;;;;4.32;1.58;;;16.00;99.90;;;;;;4965320;28;20058;-74
2022/09/22 10:42:33;;;;;;;4.63;1.30;;;16.00;99.90;;;;;;4961285;28;20428;-73
2022/09/22 10:45:11;;;;;;;5.97;1.45;;;16.00;99.90;;;;;;4977791;28;20057;-74
2022/09/22 10:47:54;;;;;;;6.32;1.70;;;15.90;99.90;;;;;;4947559;28;20053;-73
2022/09/22 10:50:23;;;;;;;4.82;1.60;;;16.00;99.90;;;;;;4962094;28;20050;-74
2022/09/22 10:53:01;;;;;;;3.45;1.60;;;15.90;99.90;;;;;;4982194;28;20058;-73
2022/09/22 10:55:53;;;;;;;6.93;2.30;;;16.00;99.90;;;;;;4979189;28;20050;-74
2022/09/22 10:58:26;;;;;;;6.35;2.13;;;16.10;99.90;;;;;;4948247;28;20081;-73
2022/09/22 11:01:17;;;;;;;3.65;1.70;;;16.10;99.90;;;;;;4988077;28;20051;-74
2022/09/22 11:03:43;;;;;;;;;;;16.10;99.90;;;;;;4982740;28;21470;-74
2022/09/22 11:12:18;;;;;;;4.28;1.10;;;16.10;99.90;;;;;;4963006;28;20468;-73
2022/09/22 11:14:43;;;;;;;4.95;1.50;;;16.20;99.90;;;;;;4966078;28;20099;-74
2022/09/22 11:17:37;;;;;;;5.65;2.03;;;16.30;99.90;;;;;;4945162;28;20054;-73
2022/09/22 11:20:32;;;;;;;6.32;2.03;;;16.40;99.90;;;;;;4980420;28;20136;-73
2022/09/22 11:23:29;;;;;;;4.45;1.70;;;16.30;99.90;;;;;;4953639;28;20138;-73
2022/09/22 11:26:27;;;;;;;5.28;1.77;;;16.20;99.90;;;;;;4977877;28;20197;-74
2022/09/22 11:29:45;;;;;;;5.88;1.60;;;16.20;99.90;;;;;;4978837;28;20648;-73
2022/09/22 11:32:34;;;;;;;5.30;1.95;;;16.10;99.90;;;;;;4945090;28;20516;-73
2022/09/22 11:35:37;;;;;;;5.47;2.45;;;16.00;99.90;;;;;;4963250;28;20057;-74
2022/09/22 11:38:33;;;;;;;5.93;2.50;;;16.00;99.90;;;;;;4965441;28;20050;-73
2022/09/22 11:41:19;;;;;;;5.30;1.90;;;16.10;99.90;;;;;;4961308;28;20053;-74
2022/09/22 11:43:54;;;;;;;3.72;1.70;;;16.30;99.90;;;;;;4982051;28;20596;-74
2022/09/22 11:46:36;;;;;;;5.32;2.05;;;16.30;99.90;;;;;;4968300;28;20511;-73
2022/09/22 11:49:04;;;;;;;6.03;2.83;;;16.40;99.90;;;;;;4958588;28;20050;-73
2022/09/22 11:51:44;;;;;;;4.68;2.47;;;16.50;99.90;;;;;;4960879;28;20476;-74
2022/09/22 11:54:34;;;;;;;4.32;2.08;;;16.50;99.90;;;;;;4964300;28;20513;-74
2022/09/22 11:57:03;;;;;;;5.68;2.42;;;16.70;99.90;;;;;;4944716;28;20468;-74
2022/09/22 11:59:31;;;;;;;7.55;2.85;;;16.70;99.90;;;;;;4979612;28;20057;-73
2022/09/22 12:02:03;;;;;;;6.90;3.97;;;16.50;99.90;;;;;;4980646;28;20481;-74
2022/09/22 12:04:48;;;;;;;7.13;3.63;;;16.20;99.90;;;;;;4982048;28;20484;-73
2022/09/22 12:07:25;;;;;;;7.80;3.88;;;16.10;99.90;;;;;;4946795;28;20243;-73
2022/09/22 12:10:04;;;;;;;8.45;3.50;;;16.30;99.90;;;;;;4963585;28;20143;-74
2022/09/22 12:12:31;;;;;;;8.23;3.53;;;16.40;99.90;;;;;;4945659;28;20034;-74
2022/09/22 12:15:29;;;;;;;8.40;5.68;;;16.80;99.90;;;;;;4951752;28;20394;-74
2022/09/22 12:18:04;;;;;;;8.88;5.63;;;16.70;99.90;;;;;;4963149;28;20085;-74
2022/09/22 12:20:56;;;;;;;4.57;3.50;;;16.70;99.90;;;;;;4976459;28;20145;-74
2022/09/22 12:23:44;;;;;;;7.40;3.13;;;16.80;99.90;;;;;;4980353;28;20544;-74
2022/09/22 12:26:11;;;;;;;5.00;3.40;;;16.80;99.90;;;;;;4957486;28;20198;-73
2022/09/22 12:28:42;;;;;;;7.32;3.72;;;16.90;99.90;;;;;;4975682;28;20050;-73
2022/09/22 12:31:14;;;;;;;9.45;5.43;;;16.90;99.90;;;;;;4964780;28;20054;-73
2022/09/22 12:33:48;;;;;;;7.68;4.53;;;16.70;99.90;;;;;;4966325;28;20536;-73
2022/09/22 12:36:16;;;;;;;8.20;4.35;;;16.60;99.90;;;;;;4971073;28;20084;-73
2022/09/22 12:38:43;;;;;;;8.25;4.20;;;16.60;99.90;;;;;;4982491;28;20598;-74
2022/09/22 12:41:16;;;;;;;6.97;3.70;;;16.70;99.90;;;;;;4962515;28;20058;-73
2022/09/22 12:43:42;;;;;;;6.03;3.63;;;16.80;99.90;;;;;;4984182;28;20414;-74
2022/09/22 12:46:24;;;;;;;6.88;4.15;;;16.80;99.90;;;;;;4962100;28;20794;-74
2022/09/22 12:48:50;;;;;;;6.82;3.17;;;16.70;99.90;;;;;;4963749;28;20067;-74
2022/09/22 12:51:29;;;;;;;6.53;3.15;;;16.80;99.90;;;;;;4963874;28;20572;-74
2022/09/22 12:54:21;;;;;;;6.93;3.20;;;16.80;99.90;;;;;;4969281;28;20448;-74
2022/09/22 12:57:05;;;;;;;;;;;16.90;99.90;;;;;;4934790;28;20473;-74
2022/09/22 12:59:37;;;;;;;6.00;3.15;;;16.90;99.90;;;;;;4969460;28;19929;-74
2022/09/22 13:02:16;;;;;;;8.77;3.90;;;17.00;99.90;;;;;;4965791;28;20054;-74
2022/09/22 13:04:48;;;;;;;5.57;3.53;;;17.00;99.90;;;;;;4966137;28;20050;-74
2022/09/22 13:07:38;;;;;;;4.78;3.88;;;17.00;99.90;;;;;;4967392;28;21350;-74
2022/09/22 13:10:27;;;;;;;6.75;3.60;;;16.90;99.90;;;;;;4957519;28;20068;-74
2022/09/22 13:13:02;;;;;;;9.00;3.47;;;17.00;99.90;;;;;;4939869;28;20111;-74
2022/09/22 13:15:32;;;;;;;6.43;4.10;;;17.00;99.90;;;;;;4984618;28;20054;-73
2022/09/22 13:17:58;;;;;;;7.35;3.80;;;17.10;99.90;;;;;;4947233;28;20983;-73
2022/09/22 13:20:27;;;;;;;6.57;4.40;;;17.10;99.90;;;;;;4961768;28;20049;-74
2022/09/22 13:22:55;;;;;;;7.82;3.50;;;17.10;99.90;;;;;;4962913;28;20053;-74
2022/09/22 13:25:22;;;;;;;7.72;3.83;;;17.10;99.90;;;;;;4961518;28;20379;-74
2022/09/22 13:28:03;;;;;;;8.13;4.00;;;17.10;99.90;;;;;;4944702;28;20058;-73
2022/09/22 13:30:29;;;;;;;6.82;3.38;;;16.90;99.90;;;;;;4963860;28;20049;-73